Weather at Barkley Regional Airport

Public forecast

Using degrees Fahrenheit for public forecast. Weather courtesy of forecast.io.

Current aviation weather report (METAR) for Barkley Regional Airport

2024/06/14 15:53 (retrieved 14 minutes ago)

KPAH 141553Z VRB03KT 10SM CLR 31/19 A2993 RMK AO2 SLP131 T03110194

Aviation forecast (TAF) for Barkley Regional Airport

2024/06/14 12:22 (retrieved 4 hours ago)

TAF KPAH 141120Z 1412/1512 VRB03KT P6SM BKN250 FM141700 30007KT P6SM SCT040 FM142300 03003KT P6SM SKC